Time;durP1;ratioP1;P1;durP2;ratioP2;P2;SDS_P1;SDS_P2;PMS_P1;PMS_P2;Temp;Humidity;BMP_temperature;BMP_pressure;BME280_temperature;BME280_humidity;BME280_pressure;Samples;Min_cycle;Max_cycle;Signal;HPM_P1;HPM_P2
2023/04/21 00:00:52;;;;;;;12.10;11.80;;;19.70;50.10;;;;;;5091962;28;20517;-59
2023/04/21 00:03:21;;;;;;;12.10;11.70;;;19.70;50.20;;;;;;5090953;28;20893;-60
2023/04/21 00:05:48;;;;;;;12.13;11.83;;;19.70;50.20;;;;;;5091851;28;20446;-60
2023/04/21 00:08:17;;;;;;;13.33;12.83;;;19.70;50.20;;;;;;5091651;28;20976;-60
2023/04/21 00:10:45;;;;;;;13.53;13.03;;;19.70;50.20;;;;;;5091817;28;20916;-60
2023/04/21 00:13:12;;;;;;;12.83;12.43;;;19.70;50.30;;;;;;5086917;28;20884;-60
2023/04/21 00:15:39;;;;;;;12.70;12.30;;;19.70;50.30;;;;;;5082205;28;20981;-60
2023/04/21 00:18:06;;;;;;;13.00;12.60;;;19.70;50.40;;;;;;5071282;28;20471;-59
2023/04/21 00:20:33;;;;;;;12.40;12.00;;;19.70;50.50;;;;;;5071549;28;20554;-59
2023/04/21 00:23:00;;;;;;;12.17;11.87;;;19.70;50.50;;;;;;5072511;28;20522;-60
2023/04/21 00:25:28;;;;;;;12.70;12.30;;;19.70;50.50;;;;;;5063557;28;20449;-61
2023/04/21 00:27:55;;;;;;;12.53;12.17;;;19.70;50.50;;;;;;5091533;28;20478;-60
2023/04/21 00:30:22;;;;;;;12.77;12.33;;;19.60;50.40;;;;;;5091741;28;20478;-59
2023/04/21 00:32:49;;;;;;;13.00;12.60;;;19.60;50.50;;;;;;5089912;28;20587;-61
2023/04/21 00:35:16;;;;;;;13.00;12.50;;;19.60;50.50;;;;;;5071517;28;20475;-61
2023/04/21 00:37:43;;;;;;;13.20;12.70;;;19.60;50.50;;;;;;5071145;28;20475;-58
2023/04/21 00:40:10;;;;;;;12.30;12.00;;;19.60;50.60;;;;;;5086168;28;20569;-61
2023/04/21 00:42:38;;;;;;;12.23;11.93;;;19.60;50.60;;;;;;5091266;28;20478;-60
2023/04/21 00:45:06;;;;;;;12.40;12.00;;;19.60;50.60;;;;;;5078798;28;20483;-60
2023/04/21 00:47:33;;;;;;;12.43;12.03;;;19.60;50.60;;;;;;5089867;28;20522;-61
2023/04/21 00:50:00;;;;;;;12.10;11.70;;;19.60;50.60;;;;;;5091530;28;20560;-61
2023/04/21 00:52:28;;;;;;;12.53;12.13;;;19.60;50.60;;;;;;5091229;28;20825;-60
2023/04/21 00:54:56;;;;;;;13.30;12.90;;;19.60;50.60;;;;;;5072546;28;20481;-61
2023/04/21 00:57:23;;;;;;;13.60;13.00;;;19.60;50.70;;;;;;5071115;28;20529;-60
2023/04/21 00:59:52;;;;;;;13.13;12.63;;;19.60;50.70;;;;;;5070970;28;20510;-60
2023/04/21 01:02:19;;;;;;;12.57;12.07;;;19.60;50.70;;;;;;5071084;28;21050;-60
2023/04/21 01:04:46;;;;;;;12.90;12.50;;;19.60;50.80;;;;;;5088117;28;20477;-60
2023/04/21 01:07:13;;;;;;;13.00;12.60;;;19.60;50.80;;;;;;5091123;28;20941;-60
2023/04/21 01:09:40;;;;;;;13.13;12.70;;;19.60;50.80;;;;;;5091246;28;20477;-60
2023/04/21 01:12:08;;;;;;;12.70;12.37;;;19.60;50.90;;;;;;5082257;28;20491;-58
2023/04/21 01:14:36;;;;;;;13.47;12.97;;;19.60;50.90;;;;;;5071917;28;20470;-61
2023/04/21 01:17:06;;;;;;;12.57;12.17;;;19.50;50.80;;;;;;5074666;28;20493;-60
2023/04/21 01:19:35;;;;;;;12.67;12.27;;;19.50;51.40;;;;;;5074716;28;20482;-60
2023/04/21 01:22:04;;;;;;;13.20;12.80;;;19.50;50.90;;;;;;5082228;28;20533;-60
2023/04/21 01:24:38;;;;;;;12.23;11.83;;;19.60;51.00;;;;;;5095061;28;20482;-60
2023/04/21 01:27:10;;;;;;;12.70;12.30;;;19.50;51.00;;;;;;5094745;28;20484;-59
2023/04/21 01:29:37;;;;;;;13.10;12.70;;;19.50;51.00;;;;;;5093105;28;20449;-60
2023/04/21 01:32:06;;;;;;;13.47;13.00;;;19.60;51.10;;;;;;5094937;28;20497;-61
2023/04/21 01:34:33;;;;;;;13.53;13.13;;;19.60;51.10;;;;;;5094781;28;20549;-59
2023/04/21 01:37:00;;;;;;;13.00;12.50;;;19.50;51.10;;;;;;5094495;28;20529;-59
2023/04/21 01:39:29;;;;;;;12.40;12.00;;;19.50;51.10;;;;;;5090042;28;20475;-61
2023/04/21 01:41:57;;;;;;;12.43;12.03;;;19.50;51.10;;;;;;5074178;28;20513;-61
2023/04/21 01:44:25;;;;;;;12.20;11.83;;;19.50;51.20;;;;;;5074305;28;20447;-61
2023/04/21 01:46:52;;;;;;;12.70;12.30;;;19.50;51.20;;;;;;5074067;28;20451;-61
2023/04/21 01:49:19;;;;;;;12.73;12.33;;;19.50;51.20;;;;;;5076685;28;20463;-59
2023/04/21 01:51:46;;;;;;;12.40;12.00;;;19.50;51.20;;;;;;5094212;28;20494;-60
2023/04/21 01:54:13;;;;;;;11.73;11.33;;;19.50;51.20;;;;;;5094329;28;20481;-60
2023/04/21 01:56:41;;;;;;;13.10;12.70;;;19.50;51.30;;;;;;5094141;28;20533;-61
2023/04/21 01:59:08;;;;;;;12.33;11.93;;;19.50;51.30;;;;;;5092826;28;20565;-61
2023/04/21 02:01:35;;;;;;;12.10;11.70;;;19.50;51.30;;;;;;5073877;28;20550;-60
2023/04/21 02:04:03;;;;;;;11.80;11.50;;;19.50;51.30;;;;;;5073964;28;20448;-61
2023/04/21 02:06:30;;;;;;;13.50;13.00;;;19.50;51.30;;;;;;5073798;28;20474;-61
2023/04/21 02:08:57;;;;;;;13.00;12.60;;;19.50;51.40;;;;;;5073770;28;20537;-60
2023/04/21 02:11:24;;;;;;;12.20;11.80;;;19.50;51.40;;;;;;5093235;28;20842;-61
2023/04/21 02:13:53;;;;;;;12.20;11.90;;;19.50;51.40;;;;;;5094051;28;20629;-61
2023/04/21 02:16:20;;;;;;;12.27;11.87;;;19.50;51.40;;;;;;5094033;28;20484;-60
2023/04/21 02:18:47;;;;;;;12.90;12.40;;;19.50;51.40;;;;;;5081721;28;20507;-61
2023/04/21 02:21:14;;;;;;;12.67;12.27;;;19.50;51.50;;;;;;5073726;28;20521;-61
2023/04/21 02:23:41;;;;;;;12.70;12.20;;;19.50;51.50;;;;;;5073745;28;20482;-60
2023/04/21 02:26:09;;;;;;;12.63;12.23;;;19.50;51.60;;;;;;5072778;28;20815;-60
2023/04/21 02:28:36;;;;;;;12.43;12.03;;;19.50;51.60;;;;;;5082759;28;20446;-60
2023/04/21 02:31:04;;;;;;;12.53;12.13;;;19.50;51.60;;;;;;5079630;28;20792;-57
2023/04/21 02:33:31;;;;;;;11.77;11.47;;;19.50;51.60;;;;;;5073357;28;20931;-59
2023/04/21 02:35:58;;;;;;;13.20;12.80;;;19.50;51.70;;;;;;5073341;28;20876;-61
2023/04/21 02:38:24;;;;;;;11.33;11.03;;;19.40;51.60;;;;;;5081225;28;21020;-60
2023/04/21 02:40:51;;;;;;;12.20;11.80;;;19.40;51.70;;;;;;5093427;28;20565;-60
2023/04/21 02:43:18;;;;;;;12.80;12.40;;;19.50;51.70;;;;;;5093553;28;20485;-60
2023/04/21 02:45:45;;;;;;;12.80;12.40;;;19.40;51.70;;;;;;5093318;28;20482;-60
2023/04/21 02:48:14;;;;;;;12.17;11.77;;;19.50;51.80;;;;;;5087259;28;20447;-60
2023/04/21 02:50:42;;;;;;;12.20;11.80;;;19.50;51.80;;;;;;5073038;28;20460;-60
2023/04/21 02:53:09;;;;;;;12.70;12.30;;;19.50;52.00;;;;;;5073085;28;20961;-61
2023/04/21 02:55:36;;;;;;;12.30;11.90;;;19.40;52.00;;;;;;5072935;28;20478;-60
2023/04/21 02:58:03;;;;;;;12.30;11.90;;;19.40;52.10;;;;;;5073860;28;20495;-59
2023/04/21 03:00:29;;;;;;;12.60;12.10;;;19.40;52.20;;;;;;5072909;28;20521;-59
2023/04/21 03:02:56;;;;;;;11.80;11.47;;;19.40;52.20;;;;;;5073050;28;20453;-60
2023/04/21 03:05:25;;;;;;;12.30;11.87;;;19.40;52.30;;;;;;5073446;28;20498;-60
2023/04/21 03:07:51;;;;;;;12.53;12.00;;;19.50;52.40;;;;;;5075092;28;20508;-60
2023/04/21 03:10:19;;;;;;;11.80;11.30;;;19.40;52.40;;;;;;5093335;28;20526;-60
2023/04/21 03:12:46;;;;;;;11.13;10.63;;;19.50;52.50;;;;;;5093203;28;20812;-61
2023/04/21 03:15:14;;;;;;;13.90;11.60;;;19.40;52.40;;;;;;5093535;28;20521;-61
2023/04/21 03:17:41;;;;;;;11.70;11.30;;;19.40;52.50;;;;;;5092472;28;20541;-61
2023/04/21 03:20:10;;;;;;;12.57;12.10;;;19.50;52.60;;;;;;5081283;28;20478;-61
2023/04/21 03:22:38;;;;;;;12.57;12.07;;;19.40;52.50;;;;;;5099542;28;20451;-60
2023/04/21 03:25:06;;;;;;;12.67;12.17;;;19.40;52.50;;;;;;5100192;28;20485;-61
2023/04/21 03:27:33;;;;;;;12.17;11.77;;;19.40;52.50;;;;;;5099112;28;20446;-61
2023/04/21 03:30:00;;;;;;;12.27;11.87;;;19.40;52.50;;;;;;5079985;28;20463;-61
2023/04/21 03:32:27;;;;;;;12.40;12.00;;;19.40;52.50;;;;;;5078448;28;20501;-61
2023/04/21 03:34:54;;;;;;;12.07;11.57;;;19.50;52.60;;;;;;5072820;28;20479;-60
2023/04/21 03:37:21;;;;;;;12.13;11.63;;;19.40;52.60;;;;;;5072030;28;20958;-60
2023/04/21 03:39:49;;;;;;;11.83;11.43;;;19.40;52.60;;;;;;5088908;28;20933;-60
2023/04/21 03:42:16;;;;;;;12.00;11.60;;;19.50;52.70;;;;;;5092371;28;20510;-60
2023/04/21 03:44:43;;;;;;;12.00;11.60;;;19.40;52.70;;;;;;5092402;28;20474;-60
2023/04/21 03:47:10;;;;;;;12.40;12.00;;;19.40;52.70;;;;;;5092139;28;20480;-60
2023/04/21 03:49:37;;;;;;;11.73;11.13;;;19.40;52.70;;;;;;5076088;28;20483;-60
2023/04/21 03:52:04;;;;;;;11.90;11.50;;;19.50;52.80;;;;;;5071983;28;20538;-59
2023/04/21 03:54:31;;;;;;;12.30;11.90;;;19.40;52.80;;;;;;5071875;28;20530;-59
2023/04/21 03:56:59;;;;;;;11.57;11.20;;;19.40;52.80;;;;;;5071735;28;20479;-59
2023/04/21 03:59:26;;;;;;;12.10;11.70;;;19.40;52.80;;;;;;5085642;28;20528;-60
2023/04/21 04:01:53;;;;;;;12.70;12.30;;;19.40;52.80;;;;;;5091909;28;21130;-61
2023/04/21 04:04:19;;;;;;;11.87;11.43;;;19.40;52.80;;;;;;5092015;28;20874;-61
2023/04/21 04:06:46;;;;;;;12.07;11.70;;;19.40;52.80;;;;;;5091777;28;20442;-60
2023/04/21 04:09:13;;;;;;;12.03;11.63;;;19.40;52.80;;;;;;5079493;28;20483;-59
2023/04/21 04:11:40;;;;;;;12.73;12.23;;;19.40;52.80;;;;;;5071655;28;20501;-60
2023/04/21 04:14:08;;;;;;;12.60;12.20;;;19.40;52.80;;;;;;5071669;28;20483;-60
2023/04/21 04:16:36;;;;;;;11.60;11.20;;;19.40;52.90;;;;;;5071507;28;20478;-58
2023/04/21 04:19:03;;;;;;;12.37;11.90;;;19.40;53.00;;;;;;5076481;28;20829;-59
2023/04/21 04:21:31;;;;;;;13.53;13.13;;;19.40;53.00;;;;;;5091708;28;20601;-62
2023/04/21 04:23:58;;;;;;;13.17;12.60;;;19.40;53.00;;;;;;5091735;28;20445;-60
2023/04/21 04:26:26;;;;;;;12.67;12.27;;;19.40;53.00;;;;;;5091810;28;20458;-60
2023/04/21 04:28:55;;;;;;;13.30;12.70;;;19.40;53.00;;;;;;5089947;28;20493;-61
2023/04/21 04:31:24;;;;;;;12.60;12.10;;;19.40;53.10;;;;;;5089905;28;20997;-60
2023/04/21 04:33:51;;;;;;;12.93;12.33;;;19.40;53.00;;;;;;5091635;28;20449;-61
2023/04/21 04:36:18;;;;;;;14.30;13.60;;;19.50;52.90;;;;;;5091632;28;20552;-61
2023/04/21 04:38:45;;;;;;;14.97;14.13;;;19.50;52.90;;;;;;5091355;28;20462;-60
2023/04/21 04:41:12;;;;;;;15.30;14.50;;;19.50;53.20;;;;;;5080744;28;20479;-60
2023/04/21 04:43:40;;;;;;;14.17;12.97;;;19.50;54.10;;;;;;5071413;28;20734;-60
2023/04/21 04:46:08;;;;;;;15.07;13.90;;;19.60;55.30;;;;;;5078775;28;21207;-59
2023/04/21 04:48:36;;;;;;;14.23;13.57;;;19.60;56.20;;;;;;5049599;28;20450;-61
2023/04/21 04:51:03;;;;;;;15.70;14.47;;;19.70;57.30;;;;;;5054463;28;20887;-59
2023/04/21 04:53:30;;;;;;;14.50;13.40;;;19.70;57.30;;;;;;5055259;28;20486;-60
2023/04/21 04:55:58;;;;;;;17.37;15.03;;;19.80;57.20;;;;;;5054921;28;20448;-58
2023/04/21 04:58:25;;;;;;;14.20;13.20;;;19.90;57.00;;;;;;5054981;28;20898;-60
2023/04/21 05:00:52;;;;;;;14.17;13.37;;;19.90;56.70;;;;;;5054988;28;20571;-60
2023/04/21 05:03:19;;;;;;;15.83;14.40;;;19.90;56.40;;;;;;5055070;28;20482;-60
2023/04/21 05:05:47;;;;;;;14.77;13.40;;;20.00;56.20;;;;;;5055082;28;20506;-60
2023/04/21 05:08:14;;;;;;;14.10;13.50;;;20.00;56.00;;;;;;5054793;28;20468;-61
2023/04/21 05:10:41;;;;;;;13.43;12.90;;;20.10;55.80;;;;;;5055038;28;20889;-60
2023/04/21 05:13:08;;;;;;;13.83;12.77;;;20.10;55.50;;;;;;5054872;28;20870;-60
2023/04/21 05:15:35;;;;;;;13.83;12.93;;;20.20;55.40;;;;;;5054835;28;20871;-58
2023/04/21 05:18:01;;;;;;;13.40;12.80;;;20.20;55.20;;;;;;5054668;28;20540;-60
2023/04/21 05:20:28;;;;;;;14.50;13.40;;;20.20;54.90;;;;;;5054646;28;20579;-61
2023/04/21 05:22:57;;;;;;;12.80;12.10;;;20.20;54.70;;;;;;5054735;28;20452;-58
2023/04/21 05:25:24;;;;;;;15.20;13.93;;;20.30;54.60;;;;;;5054759;28;20482;-59
2023/04/21 05:27:50;;;;;;;13.53;12.80;;;20.30;54.50;;;;;;5054451;28;20476;-60
2023/04/21 05:30:17;;;;;;;13.60;13.00;;;20.30;54.30;;;;;;5054658;28;20472;-60
2023/04/21 05:32:44;;;;;;;13.53;12.73;;;20.40;54.20;;;;;;5054585;28;20487;-60
2023/04/21 05:35:11;;;;;;;15.00;14.20;;;20.40;54.10;;;;;;5054402;28;20483;-60
2023/04/21 05:37:38;;;;;;;13.33;12.50;;;20.40;54.00;;;;;;5054219;28;20486;-59
2023/04/21 05:40:07;;;;;;;13.40;12.70;;;20.40;53.80;;;;;;5054347;28;20511;-62
2023/04/21 05:42:34;;;;;;;13.87;13.23;;;20.40;53.70;;;;;;5054931;28;20475;-63
2023/04/21 05:45:01;;;;;;;13.77;12.93;;;20.40;53.60;;;;;;5054370;28;20487;-62
2023/04/21 05:47:28;;;;;;;14.47;13.63;;;20.40;53.50;;;;;;5054252;28;20472;-63
2023/04/21 05:49:54;;;;;;;12.83;12.23;;;20.40;53.30;;;;;;5054228;28;20476;-63
2023/04/21 05:52:21;;;;;;;13.30;12.80;;;20.40;53.20;;;;;;5054181;28;20500;-62
2023/04/21 05:54:48;;;;;;;14.00;13.10;;;20.50;53.20;;;;;;5054098;28;20878;-62
2023/04/21 05:57:16;;;;;;;12.60;12.10;;;20.50;53.10;;;;;;5053888;28;20480;-63
2023/04/21 05:59:43;;;;;;;13.50;12.90;;;20.50;53.50;;;;;;5053924;28;20647;-62
2023/04/21 06:02:11;;;;;;;13.17;12.43;;;20.50;52.90;;;;;;5052684;28;20552;-62
2023/04/21 06:04:37;;;;;;;12.97;12.27;;;20.50;52.90;;;;;;5053900;28;20982;-62
2023/04/21 06:07:09;;;;;;;13.17;12.57;;;20.50;52.80;;;;;;5053755;28;20483;-62
2023/04/21 06:09:37;;;;;;;13.27;12.77;;;20.50;52.80;;;;;;5053818;28;20783;-62
2023/04/21 06:12:04;;;;;;;13.03;12.40;;;20.60;52.80;;;;;;5053835;28;20517;-62
2023/04/21 06:14:32;;;;;;;13.20;12.50;;;20.60;52.80;;;;;;5053766;28;20479;-62
2023/04/21 06:16:59;;;;;;;14.23;12.90;;;20.60;52.70;;;;;;5053544;28;20866;-62
2023/04/21 06:19:26;;;;;;;13.50;12.90;;;20.60;52.70;;;;;;5053604;28;20448;-62
2023/04/21 06:21:53;;;;;;;13.53;12.90;;;20.70;52.60;;;;;;5053499;28;20524;-62
2023/04/21 06:24:24;;;;;;;13.03;12.43;;;20.70;52.60;;;;;;5053569;28;20966;-62
2023/04/21 06:26:51;;;;;;;12.60;12.10;;;20.70;52.50;;;;;;5053461;28;20875;-62
2023/04/21 06:29:18;;;;;;;13.87;12.27;;;20.70;52.50;;;;;;5053366;28;20448;-62
2023/04/21 06:31:46;;;;;;;13.00;12.40;;;20.70;52.40;;;;;;5053397;28;20456;-62
2023/04/21 06:34:13;;;;;;;12.47;11.97;;;20.70;52.30;;;;;;5053423;28;20578;-62
2023/04/21 06:36:40;;;;;;;12.27;11.83;;;20.80;52.40;;;;;;5053249;28;20472;-61
2023/04/21 06:39:07;;;;;;;12.47;11.97;;;20.80;52.40;;;;;;5053394;28;20477;-63
2023/04/21 06:41:34;;;;;;;12.80;12.20;;;20.80;52.20;;;;;;5053031;28;20523;-62
2023/04/21 06:44:01;;;;;;;13.20;12.60;;;20.80;52.20;;;;;;5053240;28;20443;-62
2023/04/21 06:46:29;;;;;;;12.67;12.17;;;20.80;52.10;;;;;;5053273;28;20958;-61
2023/04/21 06:48:57;;;;;;;11.83;11.53;;;20.80;52.10;;;;;;5053014;28;20444;-62
2023/04/21 06:51:24;;;;;;;14.10;13.20;;;20.80;52.00;;;;;;5053011;28;20500;-62
2023/04/21 06:53:51;;;;;;;14.00;13.50;;;20.80;51.90;;;;;;5053050;28;20488;-62
2023/04/21 06:56:18;;;;;;;14.23;13.53;;;20.80;51.90;;;;;;5052962;28;20523;-63
2023/04/21 06:58:45;;;;;;;12.40;11.80;;;20.80;51.90;;;;;;5052728;28;20480;-61
2023/04/21 07:01:12;;;;;;;13.30;12.67;;;20.80;51.80;;;;;;5052691;28;20523;-62
2023/04/21 07:03:39;;;;;;;13.07;12.50;;;20.80;51.80;;;;;;5052884;28;20487;-62
2023/04/21 07:06:08;;;;;;;13.63;13.13;;;20.80;51.70;;;;;;5052812;28;20448;-62
2023/04/21 07:08:35;;;;;;;13.33;12.90;;;20.80;51.70;;;;;;5052552;28;20499;-62
2023/04/21 07:11:02;;;;;;;13.00;12.40;;;20.80;51.60;;;;;;5052657;28;20499;-63
2023/04/21 07:13:29;;;;;;;13.00;12.33;;;20.80;51.60;;;;;;5052398;28;20527;-61
2023/04/21 07:15:56;;;;;;;12.53;12.13;;;20.80;51.60;;;;;;5052664;28;20490;-62
2023/04/21 07:18:23;;;;;;;12.20;11.80;;;20.80;51.60;;;;;;5052380;28;20523;-61
2023/04/21 07:20:50;;;;;;;13.00;12.60;;;20.80;51.50;;;;;;5052270;28;20570;-62
2023/04/21 07:23:18;;;;;;;12.17;11.77;;;20.80;51.50;;;;;;5052460;28;20452;-60
2023/04/21 07:25:45;;;;;;;11.90;11.60;;;20.80;51.50;;;;;;5052402;28;20544;-61
2023/04/21 07:28:13;;;;;;;12.23;11.67;;;20.90;51.50;;;;;;5052004;28;20986;-62
2023/04/21 07:30:40;;;;;;;12.10;11.70;;;20.90;51.50;;;;;;5052334;28;20468;-63
2023/04/21 07:33:07;;;;;;;12.17;11.77;;;20.80;51.40;;;;;;5052227;28;20486;-61
2023/04/21 07:35:34;;;;;;;12.90;12.40;;;20.80;51.40;;;;;;5052204;28;20455;-63
2023/04/21 07:38:01;;;;;;;12.43;12.03;;;20.90;51.40;;;;;;5052106;28;20452;-63
2023/04/21 07:40:30;;;;;;;13.50;12.73;;;20.90;51.40;;;;;;5051705;28;20554;-62
2023/04/21 07:42:57;;;;;;;13.23;12.83;;;20.90;51.40;;;;;;5052040;28;20448;-62
2023/04/21 07:45:25;;;;;;;13.03;12.63;;;20.90;51.40;;;;;;5052172;28;20502;-62
2023/04/21 07:47:51;;;;;;;13.77;13.13;;;20.90;51.40;;;;;;5051873;28;21018;-63
2023/04/21 07:50:18;;;;;;;12.80;12.40;;;20.90;51.40;;;;;;5051909;28;20484;-63
2023/04/21 07:52:46;;;;;;;12.60;12.30;;;21.00;51.50;;;;;;5052069;28;20444;-63
2023/04/21 07:55:13;;;;;;;13.50;13.00;;;20.90;51.40;;;;;;5051890;28;20456;-63
2023/04/21 07:57:42;;;;;;;13.53;13.03;;;21.00;51.50;;;;;;5051551;28;20492;-62
2023/04/21 08:00:10;;;;;;;13.17;12.70;;;21.00;51.40;;;;;;5051672;28;20448;-63
2023/04/21 08:02:37;;;;;;;12.60;12.00;;;21.00;51.40;;;;;;5051650;28;20583;-62
2023/04/21 08:05:04;;;;;;;13.20;12.70;;;21.00;51.40;;;;;;5051782;28;20475;-63
2023/04/21 08:07:31;;;;;;;12.60;12.10;;;21.00;51.40;;;;;;5051468;28;20513;-63
2023/04/21 08:09:59;;;;;;;13.40;13.00;;;21.00;51.30;;;;;;5051655;28;20476;-62
2023/04/21 08:12:25;;;;;;;12.47;12.07;;;21.00;51.30;;;;;;5051577;28;20464;-63
2023/04/21 08:14:54;;;;;;;12.30;11.97;;;21.10;51.30;;;;;;5051634;28;20480;-63
2023/04/21 08:17:21;;;;;;;13.23;12.73;;;21.10;51.30;;;;;;5051413;28;20967;-61
2023/04/21 08:19:47;;;;;;;12.80;12.40;;;21.00;51.20;;;;;;5051511;28;20998;-62
2023/04/21 08:22:14;;;;;;;12.10;11.70;;;21.10;51.20;;;;;;5051420;28;20918;-62
2023/04/21 08:24:41;;;;;;;12.70;12.30;;;21.10;51.20;;;;;;5050847;28;20851;-61
2023/04/21 08:27:08;;;;;;;13.30;12.80;;;21.10;51.20;;;;;;5051175;28;20868;-62
2023/04/21 08:29:35;;;;;;;13.20;12.67;;;21.00;51.10;;;;;;5051451;28;20444;-62
2023/04/21 08:32:04;;;;;;;13.47;13.07;;;21.10;51.10;;;;;;5051404;28;20869;-62
2023/04/21 08:34:30;;;;;;;13.23;12.83;;;21.10;51.10;;;;;;5051371;28;21005;-62
2023/04/21 08:36:57;;;;;;;11.70;11.40;;;21.10;51.10;;;;;;5051231;28;20973;-62
2023/04/21 08:39:25;;;;;;;12.20;11.80;;;21.10;51.10;;;;;;5051328;28;20483;-62
2023/04/21 08:41:52;;;;;;;12.90;12.50;;;21.00;51.00;;;;;;5050971;28;20490;-62
2023/04/21 08:44:20;;;;;;;12.77;12.37;;;21.10;51.00;;;;;;5051347;28;20482;-62
2023/04/21 08:46:50;;;;;;;12.10;11.80;;;21.10;51.00;;;;;;5051075;28;20959;-61
2023/04/21 08:49:20;;;;;;;12.70;12.30;;;21.10;51.00;;;;;;5051239;28;20455;-62
2023/04/21 08:51:47;;;;;;;12.90;12.30;;;21.10;51.00;;;;;;5051230;28;20471;-62
2023/04/21 08:54:14;;;;;;;12.47;12.07;;;21.10;51.00;;;;;;5051349;28;20908;-62
2023/04/21 08:56:41;;;;;;;13.03;12.63;;;21.10;51.00;;;;;;5051009;28;20472;-63
2023/04/21 08:59:08;;;;;;;13.40;12.90;;;21.10;51.00;;;;;;5051189;28;20513;-62
2023/04/21 09:02:09;;;;;;;13.03;12.53;;;21.00;50.90;;;;;;5051012;28;20524;-62
2023/04/21 09:04:39;;;;;;;12.33;11.93;;;21.00;50.90;;;;;;5051177;28;20443;-63
2023/04/21 09:07:07;;;;;;;13.07;12.57;;;21.10;51.00;;;;;;5051052;28;20452;-62
2023/04/21 09:09:51;;;;;;;13.83;13.37;;;21.10;51.00;;;;;;5050928;28;20452;-63
2023/04/21 09:12:18;;;;;;;13.13;12.73;;;21.10;51.10;;;;;;5051322;28;20460;-63
2023/04/21 09:14:45;;;;;;;12.70;12.30;;;21.10;51.10;;;;;;5051252;28;20476;-63
2023/04/21 09:17:12;;;;;;;13.10;12.70;;;21.10;51.10;;;;;;5051036;28;20499;-63
2023/04/21 09:19:40;;;;;;;13.30;12.60;;;21.20;51.20;;;;;;5050976;28;20491;-62
2023/04/21 09:22:07;;;;;;;12.57;12.27;;;21.20;51.10;;;;;;5050894;28;20515;-62
2023/04/21 09:24:34;;;;;;;13.20;12.80;;;21.20;51.10;;;;;;5050887;28;20870;-63
2023/04/21 09:27:03;;;;;;;13.60;13.20;;;21.20;51.10;;;;;;5050909;28;20444;-63
2023/04/21 09:29:30;;;;;;;13.60;13.10;;;21.20;51.10;;;;;;5051015;28;20440;-63
2023/04/21 09:31:57;;;;;;;14.00;13.50;;;21.20;51.10;;;;;;5050847;28;20464;-63
2023/04/21 09:34:26;;;;;;;13.50;13.10;;;21.20;51.10;;;;;;5050879;28;20448;-63
2023/04/21 09:37:01;;;;;;;13.83;13.43;;;21.20;51.00;;;;;;5053436;28;20479;-63
2023/04/21 09:39:29;;;;;;;13.70;13.20;;;21.20;51.00;;;;;;5054335;28;20476;-63
2023/04/21 09:41:57;;;;;;;14.10;13.53;;;21.20;51.00;;;;;;5054152;28;20488;-63
2023/04/21 09:44:24;;;;;;;13.37;12.97;;;21.20;51.50;;;;;;5054425;28;20943;-63
2023/04/21 09:46:53;;;;;;;13.97;13.47;;;21.30;51.00;;;;;;5054175;28;20580;-63
2023/04/21 09:49:23;;;;;;;13.43;13.03;;;21.20;50.90;;;;;;5054170;28;20527;-63
2023/04/21 09:51:50;;;;;;;13.80;13.30;;;21.30;51.00;;;;;;5054234;28;20467;-63
2023/04/21 09:54:20;;;;;;;13.60;13.20;;;21.20;50.90;;;;;;5054192;28;20819;-63
2023/04/21 09:56:52;;;;;;;14.07;13.47;;;21.30;50.90;;;;;;5053900;28;21068;-63
2023/04/21 09:59:26;;;;;;;13.73;13.33;;;21.20;50.80;;;;;;5054086;28;20475;-63
2023/04/21 10:01:55;;;;;;;14.00;13.60;;;21.30;50.90;;;;;;5053936;28;21032;-62
2023/04/21 10:04:23;;;;;;;13.60;13.20;;;21.20;50.80;;;;;;5054127;28;20476;-62
2023/04/21 10:06:51;;;;;;;13.83;13.43;;;21.20;50.80;;;;;;5053743;28;20452;-63
2023/04/21 10:09:22;;;;;;;13.63;13.23;;;21.20;50.80;;;;;;5053788;28;20455;-63
2023/04/21 10:11:49;;;;;;;14.07;13.67;;;21.30;50.80;;;;;;5053847;28;20555;-62
2023/04/21 10:14:16;;;;;;;15.10;14.67;;;21.30;50.80;;;;;;5053847;28;21021;-63
2023/04/21 10:16:43;;;;;;;13.47;13.00;;;21.20;50.80;;;;;;5053653;28;20459;-63
2023/04/21 10:19:27;;;;;;;14.03;13.53;;;21.20;50.80;;;;;;5053787;28;20472;-63
2023/04/21 10:21:56;;;;;;;14.03;13.63;;;21.20;50.80;;;;;;5053439;28;20571;-63
2023/04/21 10:24:28;;;;;;;13.80;13.40;;;21.20;50.70;;;;;;5053552;28;20444;-63
2023/04/21 10:27:00;;;;;;;14.13;13.70;;;21.20;50.70;;;;;;5053621;28;20464;-63
2023/04/21 10:29:31;;;;;;;14.10;13.60;;;21.20;50.80;;;;;;5053536;28;20444;-63
2023/04/21 10:31:58;;;;;;;13.43;13.03;;;21.20;50.80;;;;;;5053446;28;20547;-63
2023/04/21 10:34:36;;;;;;;13.93;13.43;;;21.30;50.90;;;;;;5053522;28;20483;-63
2023/04/21 10:37:14;;;;;;;13.90;13.50;;;21.30;50.90;;;;;;5053239;28;20479;-64
2023/04/21 10:39:53;;;;;;;13.90;13.50;;;21.30;50.90;;;;;;5053303;28;20466;-63
2023/04/21 10:42:36;;;;;;;13.70;13.30;;;21.30;50.90;;;;;;5053279;28;20487;-63
2023/04/21 10:45:11;;;;;;;13.40;13.00;;;21.30;51.00;;;;;;5050799;28;20939;-63
2023/04/21 10:47:41;;;;;;;13.70;13.30;;;21.30;51.00;;;;;;5052389;28;20468;-63
2023/04/21 10:50:24;;;;;;;13.20;12.80;;;21.40;51.00;;;;;;5053217;28;20444;-63
2023/04/21 10:52:58;;;;;;;13.57;13.17;;;21.40;51.00;;;;;;5053049;28;20440;-63
2023/04/21 10:55:28;;;;;;;13.50;13.10;;;21.40;51.00;;;;;;5053143;28;20440;-63
2023/04/21 10:57:56;;;;;;;13.80;13.30;;;21.40;51.00;;;;;;5052799;28;20840;-63
2023/04/21 11:00:24;;;;;;;14.73;14.03;;;21.40;50.90;;;;;;5052902;28;20443;-63
2023/04/21 11:02:57;;;;;;;13.00;12.60;;;21.50;51.00;;;;;;5052781;28;20595;-64
2023/04/21 11:05:33;;;;;;;13.43;13.03;;;21.40;50.90;;;;;;5052912;28;20476;-63
2023/04/21 11:08:11;;;;;;;13.40;13.00;;;21.50;51.00;;;;;;5052591;28;20538;-65
2023/04/21 11:10:44;;;;;;;13.67;13.17;;;21.50;50.90;;;;;;5052727;28;20464;-64
2023/04/21 11:13:11;;;;;;;13.63;13.23;;;21.40;50.80;;;;;;5052718;28;20860;-63
2023/04/21 11:15:38;;;;;;;13.60;13.10;;;21.40;50.80;;;;;;5052698;28;20506;-63
2023/04/21 11:18:07;;;;;;;13.20;12.80;;;21.40;51.30;;;;;;5052409;28;20482;-63
2023/04/21 11:20:34;;;;;;;13.40;13.00;;;21.40;50.80;;;;;;5052476;28;20507;-62
2023/04/21 11:23:01;;;;;;;13.47;13.07;;;21.40;50.80;;;;;;5052490;28;20483;-63
2023/04/21 11:25:29;;;;;;;13.10;12.60;;;21.50;50.80;;;;;;5052443;28;20479;-63
2023/04/21 11:27:58;;;;;;;13.83;13.43;;;21.40;50.70;;;;;;5052116;28;20511;-62
2023/04/21 11:30:32;;;;;;;12.63;12.33;;;21.50;50.80;;;;;;5052413;28;20475;-63
2023/04/21 11:32:59;;;;;;;13.13;12.73;;;21.50;50.80;;;;;;5052350;28;20454;-64
2023/04/21 11:35:26;;;;;;;13.60;13.20;;;21.50;50.70;;;;;;5052313;28;20472;-63
2023/04/21 11:37:54;;;;;;;13.90;13.50;;;21.50;50.70;;;;;;5052029;28;20479;-63
2023/04/21 11:40:21;;;;;;;14.87;14.30;;;21.40;50.70;;;;;;5052093;28;20495;-63
2023/04/21 11:42:49;;;;;;;13.60;13.20;;;21.50;51.30;;;;;;5128609;22;20521;-57
2023/04/21 11:45:20;;;;;;;14.00;13.50;;;21.50;50.70;;;;;;5092582;28;20874;-59
2023/04/21 11:47:48;;;;;;;13.27;12.87;;;21.50;50.70;;;;;;5092421;28;20481;-57
2023/04/21 11:50:31;;;;;;;14.10;13.70;;;21.50;50.70;;;;;;5092562;28;20817;-58
2023/04/21 11:52:58;;;;;;;13.90;13.50;;;21.50;50.70;;;;;;5092275;28;20458;-56
2023/04/21 11:55:25;;;;;;;13.83;13.43;;;21.50;50.70;;;;;;5092458;28;20438;-58
2023/04/21 11:57:52;;;;;;;13.83;13.33;;;21.50;50.70;;;;;;5092136;28;20478;-56
2023/04/21 12:00:20;;;;;;;13.73;13.33;;;21.50;50.70;;;;;;5091313;28;20549;-57
2023/04/21 12:02:55;;;;;;;14.23;13.73;;;21.50;50.80;;;;;;5092069;28;20984;-57
2023/04/21 12:05:22;;;;;;;14.07;13.67;;;21.50;50.80;;;;;;5092275;28;20465;-58
2023/04/21 12:07:51;;;;;;;14.50;14.00;;;21.50;50.80;;;;;;5092001;28;20450;-55
2023/04/21 12:10:19;;;;;;;13.43;13.03;;;21.50;50.80;;;;;;5092153;28;20827;-58
2023/04/21 12:12:47;;;;;;;14.50;14.10;;;21.60;50.90;;;;;;5092060;28;20494;-58
2023/04/21 12:15:21;;;;;;;12.93;12.63;;;21.60;50.90;;;;;;5092106;28;20434;-57
2023/04/21 12:17:50;;;;;;;14.00;13.50;;;21.60;51.00;;;;;;5091926;28;20460;-57
2023/04/21 12:20:18;;;;;;;13.10;12.70;;;21.60;50.90;;;;;;5091844;28;20474;-58
2023/04/21 12:22:46;;;;;;;14.20;13.70;;;21.60;50.90;;;;;;5091708;28;20568;-58
2023/04/21 12:25:13;;;;;;;13.67;13.27;;;21.70;50.90;;;;;;5091882;28;20450;-58
2023/04/21 12:27:48;;;;;;;13.73;13.23;;;21.70;51.00;;;;;;5091926;28;20481;-55
2023/04/21 12:30:16;;;;;;;13.30;12.90;;;21.70;50.90;;;;;;5091965;28;20797;-58
2023/04/21 12:32:44;;;;;;;14.03;13.63;;;21.70;50.90;;;;;;5091742;28;20458;-56